Washta, Iowa
Current Conditions -  °F | °C
As of 1:35 AM on Wednesday 22 Oct 2014 (Local Time) from KCKP Reporting Station
Clear Clear  
Wind Chill: 45°   Ceiling: Unl
Heat Index: 49°   Visibility: 10mi
Dew Point: 44°   Wind: 10mph
Humidity: 81%   Direction: 150°SSE
Pressure: 30.09"   Gusts: 16mph
Location:  42.58°N, 95.72°W
Report Text: KCKP 220635Z AUTO 15009G14KT 10SM CLR 10/07 A3009 RMK AO2 T00970065
Loading
Personal Weather Stations






























Interactive Weather Map
Tropical Storm Tracking
New forecast layout! Learn more

10-Day Weather Forecast

Advertisements
Track Severe Weather on mobile